< < Back
Terminal Aerodrome Forecast


Current Version              Previous Versions:   1  2  3  4  5  6  7  8  9  

Terminal Aerodrome Forecast

170
FTUS42 KILM 180500
TAFFLO
TAF
KFLO 180522Z 1806/1906 00000KT P6SM BKN060
     FM180900 VRB02KT 1SM BR BKN004
     FM181300 04005KT 6SM BR FEW006 BKN015
     FM181500 08007KT P6SM FEW025 SCT050=

Latest METAR

051
SAUS70 KWBC 181100 RRM
MTRFLO
METAR KFLO 181053Z 05005KT 10SM OVC010 21/19 A2993 RMK AO2 SLP132
T02060194


USA.gov is the U.S. government's official web portal to all federal, state and local government web resources and services.